createdAt,value
2023-05-19T13:41:47.713Z,40.00
2023-05-19T13:44:15.917Z,30.00
2023-05-19T13:46:45.142Z,38.00
2023-05-19T13:49:13.053Z,36.00
2023-05-19T13:51:42.343Z,32.00
2023-05-19T13:54:09.442Z,35.75
2023-05-19T13:56:36.997Z,36.00
2023-05-19T13:59:04.323Z,31.00
2023-05-19T14:01:31.835Z,36.00
2023-05-19T14:03:58.622Z,38.50
2023-05-19T14:06:25.520Z,36.00
2023-05-19T14:08:52.420Z,33.00
2023-05-19T14:11:20.890Z,35.50
2023-05-19T14:13:52.510Z,33.50
2023-05-19T14:16:21.278Z,37.00
2023-05-19T14:18:48.556Z,34.00
2023-05-19T14:21:15.259Z,37.00
2023-05-19T14:23:42.174Z,40.00
2023-05-19T14:26:08.805Z,38.00
2023-05-19T14:28:35.402Z,41.00
2023-05-19T14:31:02.191Z,51.00
2023-05-19T14:33:32.779Z,55.00
2023-05-19T14:36:01.608Z,52.00
2023-05-19T14:38:29.412Z,44.50
2023-05-19T14:40:56.499Z,40.00
2023-05-19T14:43:23.214Z,44.00
2023-05-19T14:45:49.759Z,45.00
2023-05-19T14:48:16.679Z,42.00
2023-05-19T14:50:43.635Z,44.00
2023-05-19T14:53:10.355Z,38.00
2023-05-19T14:55:37.128Z,45.00
2023-05-19T14:58:07.891Z,39.50
2023-05-19T15:00:43.321Z,46.00
2023-05-19T15:03:11.207Z,47.00
2023-05-19T15:05:39.686Z,46.00
2023-05-19T15:08:06.490Z,46.00
2023-05-19T15:10:33.382Z,47.00
2023-05-19T15:13:01.115Z,46.00
2023-05-19T15:15:27.644Z,51.00
2023-05-19T15:17:54.362Z,46.50
2023-05-19T15:20:21.275Z,45.00
2023-05-19T15:22:48.208Z,47.33
2023-05-19T15:25:14.831Z,43.00
2023-05-19T15:27:41.394Z,46.00
2023-05-19T15:30:08.242Z,35.00
2023-05-19T15:32:35.030Z,34.00
2023-05-19T15:35:01.821Z,35.00
2023-05-19T15:37:28.916Z,40.00
2023-05-19T15:39:55.510Z,34.00
2023-05-19T15:44:48.518Z,41.00
2023-05-19T15:47:15.294Z,37.00
2023-05-19T15:49:42.026Z,44.00
2023-05-19T15:52:09.070Z,34.50
2023-05-19T15:54:35.809Z,40.00
2023-05-19T15:57:02.657Z,36.00
2023-05-19T15:59:29.394Z,38.00
2023-05-19T16:01:56.247Z,45.50
2023-05-19T16:04:22.941Z,37.50
2023-05-19T16:06:50.058Z,35.00
2023-05-19T16:09:16.742Z,34.50
2023-05-19T16:11:43.472Z,39.50
2023-05-19T16:14:10.029Z,35.67
2023-05-19T16:16:36.704Z,39.50
2023-05-19T16:19:03.518Z,35.00
2023-05-19T16:21:31.510Z,39.50
2023-05-19T16:23:58.276Z,39.50
2023-05-19T16:26:25.709Z,43.00
2023-05-19T16:28:52.273Z,36.50
2023-05-19T16:31:19.123Z,38.33
2023-05-19T16:33:46.104Z,36.00
2023-05-19T16:36:12.951Z,36.00
2023-05-19T16:38:39.396Z,36.00
2023-05-19T16:41:06.635Z,42.67
